sensor_id;sensor_type;location;lat;lon;timestamp;temperature;humidity
32027;DHT22;18543;50.848;4.596;2022-12-07T00:01:29;20.10;53.90
32027;DHT22;18543;50.848;4.596;2022-12-07T00:03:59;20.10;53.90
32027;DHT22;18543;50.848;4.596;2022-12-07T00:06:43;20.10;54.00
32027;DHT22;18543;50.848;4.596;2022-12-07T00:09:13;20.10;53.90
32027;DHT22;18543;50.848;4.596;2022-12-07T00:11:41;20.10;54.00
32027;DHT22;18543;50.848;4.596;2022-12-07T00:14:14;20.10;53.90
32027;DHT22;18543;50.848;4.596;2022-12-07T00:16:42;20.10;53.90
32027;DHT22;18543;50.848;4.596;2022-12-07T00:19:13;20.10;53.90
32027;DHT22;18543;50.848;4.596;2022-12-07T00:21:41;20.10;53.90
32027;DHT22;18543;50.848;4.596;2022-12-07T00:24:09;20.10;53.90
32027;DHT22;18543;50.848;4.596;2022-12-07T00:26:39;20.10;53.90
32027;DHT22;18543;50.848;4.596;2022-12-07T00:29:16;20.10;53.90
32027;DHT22;18543;50.848;4.596;2022-12-07T00:31:43;20.10;53.90
32027;DHT22;18543;50.848;4.596;2022-12-07T00:34:19;20.10;53.90
32027;DHT22;18543;50.848;4.596;2022-12-07T00:36:47;20.10;53.90
32027;DHT22;18543;50.848;4.596;2022-12-07T00:39:17;20.10;53.90
32027;DHT22;18543;50.848;4.596;2022-12-07T00:41:44;20.10;53.90
32027;DHT22;18543;50.848;4.596;2022-12-07T00:44:13;20.10;53.90
32027;DHT22;18543;50.848;4.596;2022-12-07T00:46:40;20.10;53.90
32027;DHT22;18543;50.848;4.596;2022-12-07T00:49:10;20.10;53.90
32027;DHT22;18543;50.848;4.596;2022-12-07T00:51:38;20.10;53.80
32027;DHT22;18543;50.848;4.596;2022-12-07T00:54:07;20.20;53.90
32027;DHT22;18543;50.848;4.596;2022-12-07T00:56:34;20.10;53.80
32027;DHT22;18543;50.848;4.596;2022-12-07T00:59:03;20.10;53.80
32027;DHT22;18543;50.848;4.596;2022-12-07T01:01:33;20.10;53.80
32027;DHT22;18543;50.848;4.596;2022-12-07T01:04:01;20.10;53.80
32027;DHT22;18543;50.848;4.596;2022-12-07T01:06:31;20.10;53.80
32027;DHT22;18543;50.848;4.596;2022-12-07T01:08:58;20.10;53.90
32027;DHT22;18543;50.848;4.596;2022-12-07T01:11:28;20.10;53.80
32027;DHT22;18543;50.848;4.596;2022-12-07T01:13:57;20.20;53.90
32027;DHT22;18543;50.848;4.596;2022-12-07T01:16:27;20.10;53.80
32027;DHT22;18543;50.848;4.596;2022-12-07T01:18:58;20.10;53.80
32027;DHT22;18543;50.848;4.596;2022-12-07T01:21:27;20.10;53.80
32027;DHT22;18543;50.848;4.596;2022-12-07T01:23:56;20.10;53.80
32027;DHT22;18543;50.848;4.596;2022-12-07T01:26:24;20.10;53.80
32027;DHT22;18543;50.848;4.596;2022-12-07T01:28:52;20.10;53.80
32027;DHT22;18543;50.848;4.596;2022-12-07T01:31:24;20.20;53.80
32027;DHT22;18543;50.848;4.596;2022-12-07T01:33:54;20.20;53.90
32027;DHT22;18543;50.848;4.596;2022-12-07T01:36:24;20.10;53.80
32027;DHT22;18543;50.848;4.596;2022-12-07T01:38:56;20.10;53.80
32027;DHT22;18543;50.848;4.596;2022-12-07T01:41:26;20.10;53.80
32027;DHT22;18543;50.848;4.596;2022-12-07T01:46:55;20.10;53.80
32027;DHT22;18543;50.848;4.596;2022-12-07T01:51:58;20.10;53.80
32027;DHT22;18543;50.848;4.596;2022-12-07T01:54:28;20.10;53.80
32027;DHT22;18543;50.848;4.596;2022-12-07T01:56:56;20.10;53.80
32027;DHT22;18543;50.848;4.596;2022-12-07T01:59:24;20.10;53.70
32027;DHT22;18543;50.848;4.596;2022-12-07T02:01:54;20.10;53.70
32027;DHT22;18543;50.848;4.596;2022-12-07T02:04:25;20.10;53.70
32027;DHT22;18543;50.848;4.596;2022-12-07T02:06:52;20.10;53.70
32027;DHT22;18543;50.848;4.596;2022-12-07T02:09:20;20.10;53.70
32027;DHT22;18543;50.848;4.596;2022-12-07T02:11:49;20.10;53.80
32027;DHT22;18543;50.848;4.596;2022-12-07T02:14:17;20.00;53.60
32027;DHT22;18543;50.848;4.596;2022-12-07T02:23:21;20.00;53.70
32027;DHT22;18543;50.848;4.596;2022-12-07T02:31:17;20.00;53.70
32027;DHT22;18543;50.848;4.596;2022-12-07T02:33:52;20.00;53.60
32027;DHT22;18543;50.848;4.596;2022-12-07T02:36:34;20.00;53.70
32027;DHT22;18543;50.848;4.596;2022-12-07T02:39:11;20.00;53.70
32027;DHT22;18543;50.848;4.596;2022-12-07T02:42:00;20.00;53.60
32027;DHT22;18543;50.848;4.596;2022-12-07T02:44:29;20.00;53.60
32027;DHT22;18543;50.848;4.596;2022-12-07T02:47:02;20.00;53.70
32027;DHT22;18543;50.848;4.596;2022-12-07T02:49:30;20.00;53.60
32027;DHT22;18543;50.848;4.596;2022-12-07T02:51:58;20.00;53.60
32027;DHT22;18543;50.848;4.596;2022-12-07T02:54:25;20.00;53.60
32027;DHT22;18543;50.848;4.596;2022-12-07T03:11:15;19.90;53.60
32027;DHT22;18543;50.848;4.596;2022-12-07T03:13:53;20.00;53.60
32027;DHT22;18543;50.848;4.596;2022-12-07T03:16:24;20.00;53.60
32027;DHT22;18543;50.848;4.596;2022-12-07T03:18:58;20.00;53.60
32027;DHT22;18543;50.848;4.596;2022-12-07T03:21:31;20.00;53.60
32027;DHT22;18543;50.848;4.596;2022-12-07T03:24:02;19.90;53.50
32027;DHT22;18543;50.848;4.596;2022-12-07T03:26:34;19.90;53.60
32027;DHT22;18543;50.848;4.596;2022-12-07T03:29:06;20.00;53.60
32027;DHT22;18543;50.848;4.596;2022-12-07T03:31:41;20.00;53.60
32027;DHT22;18543;50.848;4.596;2022-12-07T03:34:28;19.90;53.50
32027;DHT22;18543;50.848;4.596;2022-12-07T03:37:05;19.90;53.60
32027;DHT22;18543;50.848;4.596;2022-12-07T03:39:57;19.90;53.60
32027;DHT22;18543;50.848;4.596;2022-12-07T03:42:30;19.90;53.50
32027;DHT22;18543;50.848;4.596;2022-12-07T03:44:59;19.90;53.50
32027;DHT22;18543;50.848;4.596;2022-12-07T03:50:48;19.90;53.50
32027;DHT22;18543;50.848;4.596;2022-12-07T03:53:23;19.90;53.50
32027;DHT22;18543;50.848;4.596;2022-12-07T03:55:52;19.90;53.50
32027;DHT22;18543;50.848;4.596;2022-12-07T03:58:21;19.90;53.60
32027;DHT22;18543;50.848;4.596;2022-12-07T04:00:50;19.90;53.60
32027;DHT22;18543;50.848;4.596;2022-12-07T04:03:17;19.90;53.60
32027;DHT22;18543;50.848;4.596;2022-12-07T04:05:44;19.90;53.60
32027;DHT22;18543;50.848;4.596;2022-12-07T04:08:12;19.90;53.60
32027;DHT22;18543;50.848;4.596;2022-12-07T04:10:39;19.90;53.60
32027;DHT22;18543;50.848;4.596;2022-12-07T04:13:08;19.90;53.60
32027;DHT22;18543;50.848;4.596;2022-12-07T04:15:35;19.90;53.60
32027;DHT22;18543;50.848;4.596;2022-12-07T04:18:02;19.80;53.50
32027;DHT22;18543;50.848;4.596;2022-12-07T04:20:30;19.90;53.60
32027;DHT22;18543;50.848;4.596;2022-12-07T04:22:57;19.80;53.50
32027;DHT22;18543;50.848;4.596;2022-12-07T04:25:24;19.80;53.50
32027;DHT22;18543;50.848;4.596;2022-12-07T04:27:53;19.80;53.50
32027;DHT22;18543;50.848;4.596;2022-12-07T04:30:21;19.80;53.50
32027;DHT22;18543;50.848;4.596;2022-12-07T04:32:48;19.80;54.10
32027;DHT22;18543;50.848;4.596;2022-12-07T04:35:15;19.80;53.50
32027;DHT22;18543;50.848;4.596;2022-12-07T04:37:42;19.80;53.50
32027;DHT22;18543;50.848;4.596;2022-12-07T04:40:12;19.80;53.50
32027;DHT22;18543;50.848;4.596;2022-12-07T04:42:41;19.80;53.50
32027;DHT22;18543;50.848;4.596;2022-12-07T04:45:11;19.80;53.50
32027;DHT22;18543;50.848;4.596;2022-12-07T04:47:38;19.80;53.50
32027;DHT22;18543;50.848;4.596;2022-12-07T04:50:05;19.80;53.50
32027;DHT22;18543;50.848;4.596;2022-12-07T04:52:33;19.80;53.50
32027;DHT22;18543;50.848;4.596;2022-12-07T04:55:02;19.80;53.50
32027;DHT22;18543;50.848;4.596;2022-12-07T04:57:29;19.80;53.50
32027;DHT22;18543;50.848;4.596;2022-12-07T04:59:56;19.80;53.50
32027;DHT22;18543;50.848;4.596;2022-12-07T05:02:24;19.80;53.50
32027;DHT22;18543;50.848;4.596;2022-12-07T05:04:53;19.70;53.40
32027;DHT22;18543;50.848;4.596;2022-12-07T05:07:20;19.80;53.50
32027;DHT22;18543;50.848;4.596;2022-12-07T05:09:47;19.80;53.50
32027;DHT22;18543;50.848;4.596;2022-12-07T05:12:14;19.70;53.40
32027;DHT22;18543;50.848;4.596;2022-12-07T05:14:41;19.70;53.40
32027;DHT22;18543;50.848;4.596;2022-12-07T05:17:08;19.70;53.30
32027;DHT22;18543;50.848;4.596;2022-12-07T05:19:35;19.70;53.30
32027;DHT22;18543;50.848;4.596;2022-12-07T05:22:02;19.70;53.40
32027;DHT22;18543;50.848;4.596;2022-12-07T05:24:29;19.70;53.30
32027;DHT22;18543;50.848;4.596;2022-12-07T05:26:56;19.70;53.40
32027;DHT22;18543;50.848;4.596;2022-12-07T05:29:25;19.80;53.40
32027;DHT22;18543;50.848;4.596;2022-12-07T05:31:52;19.80;53.40
32027;DHT22;18543;50.848;4.596;2022-12-07T05:34:20;19.70;53.30
32027;DHT22;18543;50.848;4.596;2022-12-07T05:36:47;19.70;53.20
32027;DHT22;18543;50.848;4.596;2022-12-07T05:39:14;19.70;53.20
32027;DHT22;18543;50.848;4.596;2022-12-07T05:41:41;19.70;53.20
32027;DHT22;18543;50.848;4.596;2022-12-07T05:44:27;19.70;53.20
32027;DHT22;18543;50.848;4.596;2022-12-07T05:46:54;19.80;53.30
32027;DHT22;18543;50.848;4.596;2022-12-07T05:49:21;19.70;53.20
32027;DHT22;18543;50.848;4.596;2022-12-07T05:51:48;19.80;53.30
32027;DHT22;18543;50.848;4.596;2022-12-07T05:54:15;19.80;53.20
32027;DHT22;18543;50.848;4.596;2022-12-07T05:56:42;19.80;53.20
32027;DHT22;18543;50.848;4.596;2022-12-07T05:59:09;19.80;53.20
32027;DHT22;18543;50.848;4.596;2022-12-07T06:01:56;19.80;53.20
32027;DHT22;18543;50.848;4.596;2022-12-07T06:04:28;19.80;53.20
32027;DHT22;18543;50.848;4.596;2022-12-07T06:06:55;19.80;53.20
32027;DHT22;18543;50.848;4.596;2022-12-07T06:09:26;19.80;53.20
32027;DHT22;18543;50.848;4.596;2022-12-07T06:11:55;19.80;53.20
32027;DHT22;18543;50.848;4.596;2022-12-07T06:14:41;19.80;53.20
32027;DHT22;18543;50.848;4.596;2022-12-07T06:17:08;19.80;53.10
32027;DHT22;18543;50.848;4.596;2022-12-07T06:19:35;19.80;53.10
32027;DHT22;18543;50.848;4.596;2022-12-07T06:22:03;19.80;53.10
32027;DHT22;18543;50.848;4.596;2022-12-07T06:24:32;19.90;53.20
32027;DHT22;18543;50.848;4.596;2022-12-07T06:26:59;19.90;53.10
32027;DHT22;18543;50.848;4.596;2022-12-07T06:29:26;19.90;53.10
32027;DHT22;18543;50.848;4.596;2022-12-07T06:31:53;19.90;53.10
32027;DHT22;18543;50.848;4.596;2022-12-07T06:34:26;19.90;53.10
32027;DHT22;18543;50.848;4.596;2022-12-07T06:36:54;19.90;53.10
32027;DHT22;18543;50.848;4.596;2022-12-07T06:39:24;19.90;53.10
32027;DHT22;18543;50.848;4.596;2022-12-07T06:41:52;19.90;53.00
32027;DHT22;18543;50.848;4.596;2022-12-07T06:44:23;19.90;53.00
32027;DHT22;18543;50.848;4.596;2022-12-07T06:46:51;19.90;53.00
32027;DHT22;18543;50.848;4.596;2022-12-07T06:49:38;19.90;52.90
32027;DHT22;18543;50.848;4.596;2022-12-07T06:52:05;20.00;53.00
32027;DHT22;18543;50.848;4.596;2022-12-07T06:54:32;19.90;52.90
32027;DHT22;18543;50.848;4.596;2022-12-07T06:56:59;20.00;53.00
32027;DHT22;18543;50.848;4.596;2022-12-07T06:59:26;20.00;53.00
32027;DHT22;18543;50.848;4.596;2022-12-07T07:01:54;20.00;52.90
32027;DHT22;18543;50.848;4.596;2022-12-07T07:04:23;20.00;53.00
32027;DHT22;18543;50.848;4.596;2022-12-07T07:06:51;19.50;48.50
32027;DHT22;18543;50.848;4.596;2022-12-07T07:09:25;18.90;48.30
32027;DHT22;18543;50.848;4.596;2022-12-07T07:11:52;19.00;51.70
32027;DHT22;18543;50.848;4.596;2022-12-07T07:14:19;19.10;52.40
32027;DHT22;18543;50.848;4.596;2022-12-07T07:16:48;19.20;52.50
32027;DHT22;18543;50.848;4.596;2022-12-07T07:19:15;19.30;52.60
32027;DHT22;18543;50.848;4.596;2022-12-07T07:21:42;19.40;52.60
32027;DHT22;18543;50.848;4.596;2022-12-07T07:24:09;19.40;52.60
32027;DHT22;18543;50.848;4.596;2022-12-07T07:26:36;19.50;52.60
32027;DHT22;18543;50.848;4.596;2022-12-07T07:29:05;19.50;52.70
32027;DHT22;18543;50.848;4.596;2022-12-07T07:31:33;19.60;52.70
32027;DHT22;18543;50.848;4.596;2022-12-07T07:34:02;19.60;52.70
32027;DHT22;18543;50.848;4.596;2022-12-07T07:36:30;19.60;50.90
32027;DHT22;18543;50.848;4.596;2022-12-07T07:38:56;19.40;51.90
32027;DHT22;18543;50.848;4.596;2022-12-07T07:41:23;19.40;52.70
32027;DHT22;18543;50.848;4.596;2022-12-07T07:43:51;19.50;52.70
32027;DHT22;18543;50.848;4.596;2022-12-07T07:46:18;19.50;52.70
32027;DHT22;18543;50.848;4.596;2022-12-07T07:48:48;19.60;52.80
32027;DHT22;18543;50.848;4.596;2022-12-07T07:51:15;19.70;52.90
32027;DHT22;18543;50.848;4.596;2022-12-07T07:53:43;19.70;52.90
32027;DHT22;18543;50.848;4.596;2022-12-07T07:56:10;19.70;52.90
32027;DHT22;18543;50.848;4.596;2022-12-07T07:58:37;19.70;52.90
32027;DHT22;18543;50.848;4.596;2022-12-07T08:01:06;19.80;53.00
32027;DHT22;18543;50.848;4.596;2022-12-07T08:03:35;19.80;53.00
32027;DHT22;18543;50.848;4.596;2022-12-07T08:06:03;19.60;51.30
32027;DHT22;18543;50.848;4.596;2022-12-07T08:08:31;19.60;52.60
32027;DHT22;18543;50.848;4.596;2022-12-07T08:10:58;19.30;51.40
32027;DHT22;18543;50.848;4.596;2022-12-07T08:13:28;19.40;52.90
32027;DHT22;18543;50.848;4.596;2022-12-07T08:15:57;19.40;52.90
32027;DHT22;18543;50.848;4.596;2022-12-07T08:18:27;19.50;53.00
32027;DHT22;18543;50.848;4.596;2022-12-07T08:20:59;19.60;52.90
32027;DHT22;18543;50.848;4.596;2022-12-07T08:23:27;19.70;52.90
32027;DHT22;18543;50.848;4.596;2022-12-07T08:26:09;19.70;52.90
32027;DHT22;18543;50.848;4.596;2022-12-07T08:28:37;19.70;52.80
32027;DHT22;18543;50.848;4.596;2022-12-07T08:31:07;19.80;52.80
32027;DHT22;18543;50.848;4.596;2022-12-07T08:33:36;19.80;52.80
32027;DHT22;18543;50.848;4.596;2022-12-07T08:36:05;19.80;52.50
32027;DHT22;18543;50.848;4.596;2022-12-07T08:38:34;18.70;47.50
32027;DHT22;18543;50.848;4.596;2022-12-07T08:41:02;18.40;51.00
32027;DHT22;18543;50.848;4.596;2022-12-07T08:43:29;18.60;52.60
32027;DHT22;18543;50.848;4.596;2022-12-07T08:46:04;18.70;51.70
32027;DHT22;18543;50.848;4.596;2022-12-07T08:48:34;18.80;51.50
32027;DHT22;18543;50.848;4.596;2022-12-07T08:51:03;19.00;51.10
32027;DHT22;18543;50.848;4.596;2022-12-07T08:53:31;19.00;50.70
32027;DHT22;18543;50.848;4.596;2022-12-07T08:56:00;19.10;50.40
32027;DHT22;18543;50.848;4.596;2022-12-07T08:58:27;19.10;50.50
32027;DHT22;18543;50.848;4.596;2022-12-07T09:00:54;19.10;50.60
32027;DHT22;18543;50.848;4.596;2022-12-07T09:03:21;19.20;50.60
32027;DHT22;18543;50.848;4.596;2022-12-07T09:05:49;19.20;50.50
32027;DHT22;18543;50.848;4.596;2022-12-07T09:08:16;19.20;49.80
32027;DHT22;18543;50.848;4.596;2022-12-07T09:10:43;19.10;50.60
32027;DHT22;18543;50.848;4.596;2022-12-07T09:13:11;19.20;50.80
32027;DHT22;18543;50.848;4.596;2022-12-07T09:15:38;19.20;50.90
32027;DHT22;18543;50.848;4.596;2022-12-07T09:18:05;19.30;51.00
32027;DHT22;18543;50.848;4.596;2022-12-07T09:20:32;19.30;50.90
32027;DHT22;18543;50.848;4.596;2022-12-07T09:23:00;19.40;51.20
32027;DHT22;18543;50.848;4.596;2022-12-07T09:25:27;19.40;51.20
32027;DHT22;18543;50.848;4.596;2022-12-07T09:27:56;19.50;51.20
32027;DHT22;18543;50.848;4.596;2022-12-07T09:30:24;19.60;51.40
32027;DHT22;18543;50.848;4.596;2022-12-07T09:32:54;19.60;51.30
32027;DHT22;18543;50.848;4.596;2022-12-07T09:35:22;19.70;51.30
32027;DHT22;18543;50.848;4.596;2022-12-07T09:37:49;19.70;51.50
32027;DHT22;18543;50.848;4.596;2022-12-07T09:40:18;19.70;51.50
32027;DHT22;18543;50.848;4.596;2022-12-07T09:42:50;19.70;51.50
32027;DHT22;18543;50.848;4.596;2022-12-07T09:45:25;19.80;52.10
32027;DHT22;18543;50.848;4.596;2022-12-07T09:47:54;19.80;51.50
32027;DHT22;18543;50.848;4.596;2022-12-07T09:50:25;19.80;51.50
32027;DHT22;18543;50.848;4.596;2022-12-07T09:53:16;19.80;51.50
32027;DHT22;18543;50.848;4.596;2022-12-07T09:55:43;19.90;51.50
32027;DHT22;18543;50.848;4.596;2022-12-07T09:58:21;19.90;51.50
32027;DHT22;18543;50.848;4.596;2022-12-07T10:00:57;19.90;51.50
32027;DHT22;18543;50.848;4.596;2022-12-07T10:03:27;19.90;51.50
32027;DHT22;18543;50.848;4.596;2022-12-07T10:05:55;19.90;51.60
32027;DHT22;18543;50.848;4.596;2022-12-07T10:08:24;20.00;51.60
32027;DHT22;18543;50.848;4.596;2022-12-07T10:10:54;20.00;51.70
32027;DHT22;18543;50.848;4.596;2022-12-07T10:13:38;20.00;51.60
32027;DHT22;18543;50.848;4.596;2022-12-07T10:16:08;20.00;51.60
32027;DHT22;18543;50.848;4.596;2022-12-07T10:18:57;20.00;51.60
32027;DHT22;18543;50.848;4.596;2022-12-07T10:21:26;20.00;51.60
32027;DHT22;18543;50.848;4.596;2022-12-07T10:24:04;20.00;51.60
32027;DHT22;18543;50.848;4.596;2022-12-07T10:32:03;20.10;51.70
32027;DHT22;18543;50.848;4.596;2022-12-07T10:34:33;20.10;51.80
32027;DHT22;18543;50.848;4.596;2022-12-07T10:42:22;19.10;52.90
32027;DHT22;18543;50.848;4.596;2022-12-07T10:45:13;19.20;52.90
32027;DHT22;18543;50.848;4.596;2022-12-07T10:50:50;19.50;52.80
32027;DHT22;18543;50.848;4.596;2022-12-07T10:53:33;19.60;52.70
32027;DHT22;18543;50.848;4.596;2022-12-07T10:56:35;19.00;51.70
32027;DHT22;18543;50.848;4.596;2022-12-07T11:08:01;19.60;53.10
32027;DHT22;18543;50.848;4.596;2022-12-07T11:16:19;19.80;52.90
32027;DHT22;18543;50.848;4.596;2022-12-07T11:22:14;19.80;53.20
32027;DHT22;18543;50.848;4.596;2022-12-07T11:27:24;19.90;53.20
32027;DHT22;18543;50.848;4.596;2022-12-07T11:37:47;18.40;53.30
32027;DHT22;18543;50.848;4.596;2022-12-07T11:40:20;17.90;53.30
32027;DHT22;18543;50.848;4.596;2022-12-07T11:43:04;18.00;55.10
32027;DHT22;18543;50.848;4.596;2022-12-07T11:45:33;18.30;55.50
32027;DHT22;18543;50.848;4.596;2022-12-07T11:48:06;18.50;54.30
32027;DHT22;18543;50.848;4.596;2022-12-07T11:50:47;18.70;55.40
32027;DHT22;18543;50.848;4.596;2022-12-07T11:53:21;18.90;55.70
32027;DHT22;18543;50.848;4.596;2022-12-07T11:56:02;19.20;56.10
32027;DHT22;18543;50.848;4.596;2022-12-07T12:02:03;18.80;51.30
32027;DHT22;18543;50.848;4.596;2022-12-07T12:06:38;17.60;52.90
32027;DHT22;18543;50.848;4.596;2022-12-07T12:09:19;17.30;54.20
32027;DHT22;18543;50.848;4.596;2022-12-07T12:15:34;16.70;54.90
32027;DHT22;18543;50.848;4.596;2022-12-07T12:20:41;16.30;55.60
32027;DHT22;18543;50.848;4.596;2022-12-07T12:23:34;16.20;56.10
32027;DHT22;18543;50.848;4.596;2022-12-07T12:26:05;16.20;56.40
32027;DHT22;18543;50.848;4.596;2022-12-07T12:28:36;16.10;56.90
32027;DHT22;18543;50.848;4.596;2022-12-07T12:31:39;16.10;56.80
32027;DHT22;18543;50.848;4.596;2022-12-07T12:34:32;16.10;56.80
32027;DHT22;18543;50.848;4.596;2022-12-07T12:36:59;16.10;56.90
32027;DHT22;18543;50.848;4.596;2022-12-07T12:39:27;16.00;56.70
32027;DHT22;18543;50.848;4.596;2022-12-07T12:41:56;15.90;56.60
32027;DHT22;18543;50.848;4.596;2022-12-07T12:46:59;15.70;57.30
32027;DHT22;18543;50.848;4.596;2022-12-07T12:49:40;15.70;56.80
32027;DHT22;18543;50.848;4.596;2022-12-07T12:52:46;15.80;56.40
32027;DHT22;18543;50.848;4.596;2022-12-07T12:56:10;15.80;57.40
32027;DHT22;18543;50.848;4.596;2022-12-07T12:58:49;16.50;57.50
32027;DHT22;18543;50.848;4.596;2022-12-07T13:23:55;18.80;53.80
32027;DHT22;18543;50.848;4.596;2022-12-07T13:29:20;18.90;52.70
32027;DHT22;18543;50.848;4.596;2022-12-07T13:31:49;18.90;52.70
32027;DHT22;18543;50.848;4.596;2022-12-07T13:34:36;19.00;52.80
32027;DHT22;18543;50.848;4.596;2022-12-07T13:37:25;19.00;52.70
32027;DHT22;18543;50.848;4.596;2022-12-07T13:40:05;19.00;52.80
32027;DHT22;18543;50.848;4.596;2022-12-07T13:42:44;19.10;52.80
32027;DHT22;18543;50.848;4.596;2022-12-07T13:45:26;19.20;52.80
32027;DHT22;18543;50.848;4.596;2022-12-07T13:48:24;19.20;52.80
32027;DHT22;18543;50.848;4.596;2022-12-07T13:50:55;19.20;52.80
32027;DHT22;18543;50.848;4.596;2022-12-07T13:53:23;18.70;50.70
32027;DHT22;18543;50.848;4.596;2022-12-07T13:55:57;18.30;52.50
32027;DHT22;18543;50.848;4.596;2022-12-07T13:58:26;18.40;53.40
32027;DHT22;18543;50.848;4.596;2022-12-07T14:00:53;18.60;53.40
32027;DHT22;18543;50.848;4.596;2022-12-07T14:03:26;18.70;53.30
32027;DHT22;18543;50.848;4.596;2022-12-07T14:06:26;18.70;53.20
32027;DHT22;18543;50.848;4.596;2022-12-07T14:09:26;18.80;52.80
32027;DHT22;18543;50.848;4.596;2022-12-07T14:11:55;18.80;51.80
32027;DHT22;18543;50.848;4.596;2022-12-07T14:14:30;18.70;50.80
32027;DHT22;18543;50.848;4.596;2022-12-07T14:17:18;18.60;51.00
32027;DHT22;18543;50.848;4.596;2022-12-07T14:19:54;18.60;51.40
32027;DHT22;18543;50.848;4.596;2022-12-07T14:22:32;18.60;51.50
32027;DHT22;18543;50.848;4.596;2022-12-07T14:25:17;18.70;51.50
32027;DHT22;18543;50.848;4.596;2022-12-07T14:27:58;18.70;51.40
32027;DHT22;18543;50.848;4.596;2022-12-07T14:30:31;18.80;51.40
32027;DHT22;18543;50.848;4.596;2022-12-07T14:33:01;18.80;51.20
32027;DHT22;18543;50.848;4.596;2022-12-07T14:35:29;18.70;50.90
32027;DHT22;18543;50.848;4.596;2022-12-07T14:37:57;18.60;51.40
32027;DHT22;18543;50.848;4.596;2022-12-07T14:40:26;18.70;51.30
32027;DHT22;18543;50.848;4.596;2022-12-07T14:43:13;18.30;50.60
32027;DHT22;18543;50.848;4.596;2022-12-07T14:45:43;18.30;51.90
32027;DHT22;18543;50.848;4.596;2022-12-07T14:48:12;18.40;52.10
32027;DHT22;18543;50.848;4.596;2022-12-07T14:50:59;18.60;52.00
32027;DHT22;18543;50.848;4.596;2022-12-07T14:53:48;18.60;52.00
32027;DHT22;18543;50.848;4.596;2022-12-07T14:56:25;18.80;51.90
32027;DHT22;18543;50.848;4.596;2022-12-07T14:58:54;18.90;52.00
32027;DHT22;18543;50.848;4.596;2022-12-07T15:01:21;19.00;51.90
32027;DHT22;18543;50.848;4.596;2022-12-07T15:03:50;19.00;52.00
32027;DHT22;18543;50.848;4.596;2022-12-07T15:06:18;19.10;52.00
32027;DHT22;18543;50.848;4.596;2022-12-07T15:08:45;19.10;51.90
32027;DHT22;18543;50.848;4.596;2022-12-07T15:11:17;19.20;52.00
32027;DHT22;18543;50.848;4.596;2022-12-07T15:13:44;19.20;52.20
32027;DHT22;18543;50.848;4.596;2022-12-07T15:16:29;19.20;51.60
32027;DHT22;18543;50.848;4.596;2022-12-07T15:19:19;18.50;49.60
32027;DHT22;18543;50.848;4.596;2022-12-07T15:21:55;17.70;50.50
32027;DHT22;18543;50.848;4.596;2022-12-07T15:24:23;17.20;51.50
32027;DHT22;18543;50.848;4.596;2022-12-07T15:26:50;17.30;52.90
32027;DHT22;18543;50.848;4.596;2022-12-07T15:29:18;17.50;53.60
32027;DHT22;18543;50.848;4.596;2022-12-07T15:31:50;17.30;52.70
32027;DHT22;18543;50.848;4.596;2022-12-07T15:34:25;16.60;52.80
32027;DHT22;18543;50.848;4.596;2022-12-07T15:37:01;16.30;53.60
32027;DHT22;18543;50.848;4.596;2022-12-07T15:39:31;15.90;54.60
32027;DHT22;18543;50.848;4.596;2022-12-07T15:41:58;15.80;55.30
32027;DHT22;18543;50.848;4.596;2022-12-07T15:44:25;16.10;55.50
32027;DHT22;18543;50.848;4.596;2022-12-07T15:47:10;16.40;56.30
32027;DHT22;18543;50.848;4.596;2022-12-07T15:49:38;16.80;55.50
32027;DHT22;18543;50.848;4.596;2022-12-07T15:52:05;17.10;54.80
32027;DHT22;18543;50.848;4.596;2022-12-07T15:54:32;17.40;54.50
32027;DHT22;18543;50.848;4.596;2022-12-07T15:56:59;17.50;54.00
32027;DHT22;18543;50.848;4.596;2022-12-07T15:59:27;17.70;54.00
32027;DHT22;18543;50.848;4.596;2022-12-07T16:01:55;17.80;53.80
32027;DHT22;18543;50.848;4.596;2022-12-07T16:04:26;17.90;53.70
32027;DHT22;18543;50.848;4.596;2022-12-07T16:06:52;17.90;53.40
32027;DHT22;18543;50.848;4.596;2022-12-07T16:09:19;18.00;53.50
32027;DHT22;18543;50.848;4.596;2022-12-07T16:11:47;18.10;53.30
32027;DHT22;18543;50.848;4.596;2022-12-07T16:14:14;18.20;53.20
32027;DHT22;18543;50.848;4.596;2022-12-07T16:16:41;18.30;53.10
32027;DHT22;18543;50.848;4.596;2022-12-07T16:19:08;18.20;52.10
32027;DHT22;18543;50.848;4.596;2022-12-07T16:21:35;18.20;53.10
32027;DHT22;18543;50.848;4.596;2022-12-07T16:24:04;18.30;53.10
32027;DHT22;18543;50.848;4.596;2022-12-07T16:26:31;18.30;53.00
32027;DHT22;18543;50.848;4.596;2022-12-07T16:28:58;18.40;53.00
32027;DHT22;18543;50.848;4.596;2022-12-07T16:31:27;18.40;52.90
32027;DHT22;18543;50.848;4.596;2022-12-07T16:33:56;18.50;52.80
32027;DHT22;18543;50.848;4.596;2022-12-07T16:36:24;18.60;52.80
32027;DHT22;18543;50.848;4.596;2022-12-07T16:39:13;18.60;52.80
32027;DHT22;18543;50.848;4.596;2022-12-07T16:41:39;18.70;52.80
32027;DHT22;18543;50.848;4.596;2022-12-07T16:44:09;18.70;52.70
32027;DHT22;18543;50.848;4.596;2022-12-07T16:46:37;18.70;52.70
32027;DHT22;18543;50.848;4.596;2022-12-07T16:49:06;18.70;52.70
32027;DHT22;18543;50.848;4.596;2022-12-07T16:51:34;18.80;52.70
32027;DHT22;18543;50.848;4.596;2022-12-07T16:54:03;18.80;52.70
32027;DHT22;18543;50.848;4.596;2022-12-07T16:56:32;18.80;52.60
32027;DHT22;18543;50.848;4.596;2022-12-07T16:58:59;18.90;52.70
32027;DHT22;18543;50.848;4.596;2022-12-07T17:01:26;18.90;52.70
32027;DHT22;18543;50.848;4.596;2022-12-07T17:03:58;18.90;52.70
32027;DHT22;18543;50.848;4.596;2022-12-07T17:06:27;18.90;52.60
32027;DHT22;18543;50.848;4.596;2022-12-07T17:08:54;19.00;52.80
32027;DHT22;18543;50.848;4.596;2022-12-07T17:11:24;19.00;52.60
32027;DHT22;18543;50.848;4.596;2022-12-07T17:13:51;19.00;52.60
32027;DHT22;18543;50.848;4.596;2022-12-07T17:16:37;19.00;52.60
32027;DHT22;18543;50.848;4.596;2022-12-07T17:19:09;19.00;52.60
32027;DHT22;18543;50.848;4.596;2022-12-07T17:21:36;19.00;52.50
32027;DHT22;18543;50.848;4.596;2022-12-07T17:24:05;19.10;52.60
32027;DHT22;18543;50.848;4.596;2022-12-07T17:26:33;19.10;52.60
32027;DHT22;18543;50.848;4.596;2022-12-07T17:29:04;19.10;52.60
32027;DHT22;18543;50.848;4.596;2022-12-07T17:31:38;19.10;52.60
32027;DHT22;18543;50.848;4.596;2022-12-07T17:34:11;19.20;52.60
32027;DHT22;18543;50.848;4.596;2022-12-07T17:36:38;19.10;52.60
32027;DHT22;18543;50.848;4.596;2022-12-07T17:39:09;19.20;52.60
32027;DHT22;18543;50.848;4.596;2022-12-07T17:41:37;19.20;52.50
32027;DHT22;18543;50.848;4.596;2022-12-07T17:44:23;19.20;52.60
32027;DHT22;18543;50.848;4.596;2022-12-07T17:46:52;19.30;52.60
32027;DHT22;18543;50.848;4.596;2022-12-07T17:49:27;19.30;52.50
32027;DHT22;18543;50.848;4.596;2022-12-07T17:51:54;19.30;52.50
32027;DHT22;18543;50.848;4.596;2022-12-07T17:54:40;19.30;52.50